Rancho Cordova, California
Current Conditions -  °F | °C
As of 7:45 PM on Tuesday 27 Jan 2015 (Local Time) from KMHR Reporting Station
Overcast Overcast  
Wind Chill: 54°   Ceiling: 12000
Heat Index: 54°   Visibility: 10mi
Dew Point: 54°   Wind: 0mph
Humidity: 100%   Direction: NA
Pressure: 30.24"   Gusts: NA
Location:  38.57°N, 121.3°W
Report Text: KMHR 280345Z 00000KT 10SM OVC120 12/12 A3024
Loading
Personal Weather Stations






























Interactive Weather Map New forecast layout! Learn more

10-Day Weather Forecast

Advertisements
Track Severe Weather on mobile